sensor_id;sensor_type;location;lat;lon;timestamp;P1;durP1;ratioP1;P2;durP2;ratioP2
3299;SDS011;1662;49.310;8.134;2023-02-15T00:01:30;60.67;;;29.98;;
3299;SDS011;1662;49.310;8.134;2023-02-15T00:03:56;88.05;;;34.28;;
3299;SDS011;1662;49.310;8.134;2023-02-15T00:06:21;62.80;;;30.03;;
3299;SDS011;1662;49.310;8.134;2023-02-15T00:08:50;70.72;;;33.55;;
3299;SDS011;1662;49.310;8.134;2023-02-15T00:11:16;66.97;;;31.65;;
3299;SDS011;1662;49.310;8.134;2023-02-15T00:14:04;62.85;;;29.20;;
3299;SDS011;1662;49.310;8.134;2023-02-15T00:16:32;73.88;;;32.33;;
3299;SDS011;1662;49.310;8.134;2023-02-15T00:18:58;73.50;;;32.33;;
3299;SDS011;1662;49.310;8.134;2023-02-15T00:21:27;69.65;;;32.42;;
3299;SDS011;1662;49.310;8.134;2023-02-15T00:23:57;71.78;;;30.40;;
3299;SDS011;1662;49.310;8.134;2023-02-15T00:26:24;75.47;;;33.58;;
3299;SDS011;1662;49.310;8.134;2023-02-15T00:28:50;80.63;;;34.20;;
3299;SDS011;1662;49.310;8.134;2023-02-15T00:31:16;69.43;;;32.22;;
3299;SDS011;1662;49.310;8.134;2023-02-15T00:33:42;60.17;;;28.87;;
3299;SDS011;1662;49.310;8.134;2023-02-15T00:36:08;67.03;;;31.17;;
3299;SDS011;1662;49.310;8.134;2023-02-15T00:38:35;55.42;;;28.90;;
3299;SDS011;1662;49.310;8.134;2023-02-15T00:41:03;61.58;;;29.50;;
3299;SDS011;1662;49.310;8.134;2023-02-15T00:43:30;71.25;;;32.70;;
3299;SDS011;1662;49.310;8.134;2023-02-15T00:45:57;68.40;;;32.20;;
3299;SDS011;1662;49.310;8.134;2023-02-15T00:48:23;63.33;;;29.67;;
3299;SDS011;1662;49.310;8.134;2023-02-15T00:50:49;77.20;;;30.97;;
3299;SDS011;1662;49.310;8.134;2023-02-15T00:53:16;68.03;;;30.90;;
3299;SDS011;1662;49.310;8.134;2023-02-15T00:55:42;60.57;;;30.73;;
3299;SDS011;1662;49.310;8.134;2023-02-15T00:58:09;56.80;;;29.93;;
3299;SDS011;1662;49.310;8.134;2023-02-15T01:00:35;59.92;;;30.67;;
3299;SDS011;1662;49.310;8.134;2023-02-15T01:03:01;67.63;;;30.92;;
3299;SDS011;1662;49.310;8.134;2023-02-15T01:05:27;61.23;;;30.57;;
3299;SDS011;1662;49.310;8.134;2023-02-15T01:07:54;65.03;;;30.35;;
3299;SDS011;1662;49.310;8.134;2023-02-15T01:10:21;61.63;;;31.48;;
3299;SDS011;1662;49.310;8.134;2023-02-15T01:12:46;58.70;;;29.53;;
3299;SDS011;1662;49.310;8.134;2023-02-15T01:15:12;67.13;;;30.27;;
3299;SDS011;1662;49.310;8.134;2023-02-15T01:17:37;66.23;;;28.60;;
3299;SDS011;1662;49.310;8.134;2023-02-15T01:20:03;68.60;;;30.27;;
3299;SDS011;1662;49.310;8.134;2023-02-15T01:22:31;66.20;;;30.10;;
3299;SDS011;1662;49.310;8.134;2023-02-15T01:24:57;61.70;;;29.30;;
3299;SDS011;1662;49.310;8.134;2023-02-15T01:27:22;58.13;;;28.53;;
3299;SDS011;1662;49.310;8.134;2023-02-15T01:29:48;60.60;;;29.40;;
3299;SDS011;1662;49.310;8.134;2023-02-15T01:32:14;64.50;;;28.30;;
3299;SDS011;1662;49.310;8.134;2023-02-15T01:34:41;56.97;;;29.25;;
3299;SDS011;1662;49.310;8.134;2023-02-15T01:37:07;52.30;;;27.20;;
3299;SDS011;1662;49.310;8.134;2023-02-15T01:39:32;52.73;;;26.33;;
3299;SDS011;1662;49.310;8.134;2023-02-15T01:41:58;66.10;;;30.60;;
3299;SDS011;1662;49.310;8.134;2023-02-15T01:47:18;62.33;;;27.90;;
3299;SDS011;1662;49.310;8.134;2023-02-15T01:49:48;64.18;;;29.60;;
3299;SDS011;1662;49.310;8.134;2023-02-15T01:52:19;59.67;;;28.73;;
3299;SDS011;1662;49.310;8.134;2023-02-15T01:54:45;61.03;;;28.17;;
3299;SDS011;1662;49.310;8.134;2023-02-15T01:57:13;54.40;;;29.42;;
3299;SDS011;1662;49.310;8.134;2023-02-15T01:59:48;60.38;;;28.27;;
3299;SDS011;1662;49.310;8.134;2023-02-15T02:02:20;50.08;;;26.35;;
3299;SDS011;1662;49.310;8.134;2023-02-15T02:04:50;51.53;;;27.48;;
3299;SDS011;1662;49.310;8.134;2023-02-15T02:07:19;59.00;;;28.60;;
3299;SDS011;1662;49.310;8.134;2023-02-15T02:09:47;51.38;;;27.17;;
3299;SDS011;1662;49.310;8.134;2023-02-15T02:12:14;51.25;;;27.52;;
3299;SDS011;1662;49.310;8.134;2023-02-15T02:14:42;53.60;;;25.95;;
3299;SDS011;1662;49.310;8.134;2023-02-15T02:17:13;55.25;;;27.75;;
3299;SDS011;1662;49.310;8.134;2023-02-15T02:37:12;48.60;;;24.33;;
3299;SDS011;1662;49.310;8.134;2023-02-15T02:40:05;47.28;;;24.25;;
3299;SDS011;1662;49.310;8.134;2023-02-15T02:43:03;42.60;;;23.85;;
3299;SDS011;1662;49.310;8.134;2023-02-15T02:45:39;43.63;;;23.77;;
3299;SDS011;1662;49.310;8.134;2023-02-15T02:48:17;47.58;;;24.67;;
3299;SDS011;1662;49.310;8.134;2023-02-15T02:50:47;45.65;;;22.90;;
3299;SDS011;1662;49.310;8.134;2023-02-15T02:53:13;47.37;;;24.57;;
3299;SDS011;1662;49.310;8.134;2023-02-15T03:03:30;56.50;;;26.25;;
3299;SDS011;1662;49.310;8.134;2023-02-15T03:06:02;44.95;;;23.40;;
3299;SDS011;1662;49.310;8.134;2023-02-15T03:08:39;40.70;;;23.10;;
3299;SDS011;1662;49.310;8.134;2023-02-15T03:11:08;51.17;;;25.58;;
3299;SDS011;1662;49.310;8.134;2023-02-15T03:13:35;46.17;;;24.65;;
3299;SDS011;1662;49.310;8.134;2023-02-15T03:16:02;48.50;;;25.52;;
3299;SDS011;1662;49.310;8.134;2023-02-15T03:18:48;44.40;;;23.45;;
3299;SDS011;1662;49.310;8.134;2023-02-15T03:21:23;44.60;;;23.92;;
3299;SDS011;1662;49.310;8.134;2023-02-15T03:24:03;51.92;;;24.35;;
3299;SDS011;1662;49.310;8.134;2023-02-15T03:26:45;49.03;;;24.90;;
3299;SDS011;1662;49.310;8.134;2023-02-15T03:29:13;44.17;;;23.55;;
3299;SDS011;1662;49.310;8.134;2023-02-15T03:31:41;44.67;;;24.10;;
3299;SDS011;1662;49.310;8.134;2023-02-15T03:34:11;47.15;;;24.00;;
3299;SDS011;1662;49.310;8.134;2023-02-15T03:39:22;42.50;;;24.50;;
3299;SDS011;1662;49.310;8.134;2023-02-15T03:44:36;46.55;;;23.60;;
3299;SDS011;1662;49.310;8.134;2023-02-15T03:47:29;43.15;;;21.88;;
3299;SDS011;1662;49.310;8.134;2023-02-15T03:52:50;41.60;;;22.55;;
3299;SDS011;1662;49.310;8.134;2023-02-15T03:55:18;41.65;;;20.98;;
3299;SDS011;1662;49.310;8.134;2023-02-15T03:57:44;44.43;;;22.73;;
3299;SDS011;1662;49.310;8.134;2023-02-15T04:00:28;41.35;;;22.67;;
3299;SDS011;1662;49.310;8.134;2023-02-15T04:03:35;42.35;;;22.77;;
3299;SDS011;1662;49.310;8.134;2023-02-15T04:06:07;46.45;;;23.15;;
3299;SDS011;1662;49.310;8.134;2023-02-15T04:08:33;43.27;;;21.63;;
3299;SDS011;1662;49.310;8.134;2023-02-15T04:11:17;47.13;;;22.98;;
3299;SDS011;1662;49.310;8.134;2023-02-15T04:13:42;37.93;;;19.70;;
3299;SDS011;1662;49.310;8.134;2023-02-15T04:16:08;35.77;;;20.27;;
3299;SDS011;1662;49.310;8.134;2023-02-15T04:18:34;41.10;;;19.23;;
3299;SDS011;1662;49.310;8.134;2023-02-15T04:21:21;42.60;;;20.17;;
3299;SDS011;1662;49.310;8.134;2023-02-15T04:24:06;35.35;;;19.40;;
3299;SDS011;1662;49.310;8.134;2023-02-15T04:26:50;38.97;;;21.20;;
3299;SDS011;1662;49.310;8.134;2023-02-15T04:29:19;33.67;;;19.50;;
3299;SDS011;1662;49.310;8.134;2023-02-15T04:31:46;34.55;;;21.05;;
3299;SDS011;1662;49.310;8.134;2023-02-15T04:34:12;38.20;;;18.27;;
3299;SDS011;1662;49.310;8.134;2023-02-15T04:36:38;37.65;;;20.10;;
3299;SDS011;1662;49.310;8.134;2023-02-15T04:39:04;35.85;;;20.63;;
3299;SDS011;1662;49.310;8.134;2023-02-15T04:41:31;36.25;;;19.42;;
3299;SDS011;1662;49.310;8.134;2023-02-15T04:43:57;35.03;;;18.35;;
3299;SDS011;1662;49.310;8.134;2023-02-15T04:46:24;33.78;;;18.33;;
3299;SDS011;1662;49.310;8.134;2023-02-15T04:48:50;35.27;;;19.27;;
3299;SDS011;1662;49.310;8.134;2023-02-15T04:51:15;40.03;;;19.50;;
3299;SDS011;1662;49.310;8.134;2023-02-15T04:53:41;35.83;;;20.77;;
3299;SDS011;1662;49.310;8.134;2023-02-15T04:56:06;28.90;;;17.80;;
3299;SDS011;1662;49.310;8.134;2023-02-15T04:58:32;35.67;;;19.30;;
3299;SDS011;1662;49.310;8.134;2023-02-15T05:00:58;36.20;;;18.70;;
3299;SDS011;1662;49.310;8.134;2023-02-15T05:03:24;29.50;;;17.50;;
3299;SDS011;1662;49.310;8.134;2023-02-15T05:05:50;36.65;;;17.90;;
3299;SDS011;1662;49.310;8.134;2023-02-15T05:08:16;30.75;;;18.88;;
3299;SDS011;1662;49.310;8.134;2023-02-15T05:10:42;38.67;;;18.25;;
3299;SDS011;1662;49.310;8.134;2023-02-15T05:13:07;35.80;;;19.60;;
3299;SDS011;1662;49.310;8.134;2023-02-15T05:15:35;36.92;;;19.88;;
3299;SDS011;1662;49.310;8.134;2023-02-15T05:18:03;38.70;;;20.23;;
3299;SDS011;1662;49.310;8.134;2023-02-15T05:20:30;30.17;;;18.13;;
3299;SDS011;1662;49.310;8.134;2023-02-15T05:22:56;33.60;;;18.50;;
3299;SDS011;1662;49.310;8.134;2023-02-15T05:25:21;32.40;;;15.33;;
3299;SDS011;1662;49.310;8.134;2023-02-15T05:28:08;26.92;;;15.50;;
3299;SDS011;1662;49.310;8.134;2023-02-15T05:30:44;35.58;;;17.23;;
3299;SDS011;1662;49.310;8.134;2023-02-15T05:33:10;29.50;;;17.40;;
3299;SDS011;1662;49.310;8.134;2023-02-15T05:35:35;33.53;;;18.27;;
3299;SDS011;1662;49.310;8.134;2023-02-15T05:38:01;24.90;;;14.90;;
3299;SDS011;1662;49.310;8.134;2023-02-15T05:40:27;26.63;;;17.80;;
3299;SDS011;1662;49.310;8.134;2023-02-15T05:42:52;29.87;;;18.60;;
3299;SDS011;1662;49.310;8.134;2023-02-15T05:45:18;24.57;;;14.77;;
3299;SDS011;1662;49.310;8.134;2023-02-15T05:47:44;31.70;;;17.13;;
3299;SDS011;1662;49.310;8.134;2023-02-15T05:50:09;31.47;;;18.03;;
3299;SDS011;1662;49.310;8.134;2023-02-15T05:52:36;24.92;;;15.63;;
3299;SDS011;1662;49.310;8.134;2023-02-15T05:55:02;29.33;;;16.47;;
3299;SDS011;1662;49.310;8.134;2023-02-15T05:57:29;29.58;;;16.33;;
3299;SDS011;1662;49.310;8.134;2023-02-15T05:59:55;31.58;;;16.75;;
3299;SDS011;1662;49.310;8.134;2023-02-15T06:02:21;26.37;;;16.23;;
3299;SDS011;1662;49.310;8.134;2023-02-15T06:04:46;27.70;;;17.87;;
3299;SDS011;1662;49.310;8.134;2023-02-15T06:07:12;25.67;;;16.50;;
3299;SDS011;1662;49.310;8.134;2023-02-15T06:09:37;33.87;;;17.77;;
3299;SDS011;1662;49.310;8.134;2023-02-15T06:12:03;31.83;;;17.23;;
3299;SDS011;1662;49.310;8.134;2023-02-15T06:14:29;23.10;;;14.87;;
3299;SDS011;1662;49.310;8.134;2023-02-15T06:16:54;27.67;;;16.40;;
3299;SDS011;1662;49.310;8.134;2023-02-15T06:19:20;31.57;;;17.07;;
3299;SDS011;1662;49.310;8.134;2023-02-15T06:21:47;30.23;;;17.13;;
3299;SDS011;1662;49.310;8.134;2023-02-15T06:24:13;31.38;;;16.58;;
3299;SDS011;1662;49.310;8.134;2023-02-15T06:26:39;31.57;;;18.37;;
3299;SDS011;1662;49.310;8.134;2023-02-15T06:29:04;30.67;;;18.17;;
3299;SDS011;1662;49.310;8.134;2023-02-15T06:31:30;32.53;;;18.30;;
3299;SDS011;1662;49.310;8.134;2023-02-15T06:33:55;29.80;;;18.20;;
3299;SDS011;1662;49.310;8.134;2023-02-15T06:36:29;28.92;;;15.65;;
3299;SDS011;1662;49.310;8.134;2023-02-15T06:38:55;37.70;;;16.58;;
3299;SDS011;1662;49.310;8.134;2023-02-15T06:41:22;26.27;;;15.20;;
3299;SDS011;1662;49.310;8.134;2023-02-15T06:43:48;25.85;;;15.93;;
3299;SDS011;1662;49.310;8.134;2023-02-15T06:46:14;27.13;;;16.48;;
3299;SDS011;1662;49.310;8.134;2023-02-15T06:48:40;24.80;;;16.23;;
3299;SDS011;1662;49.310;8.134;2023-02-15T06:51:06;29.17;;;15.67;;
3299;SDS011;1662;49.310;8.134;2023-02-15T06:53:31;27.70;;;15.80;;
3299;SDS011;1662;49.310;8.134;2023-02-15T06:56:01;33.03;;;15.80;;
3299;SDS011;1662;49.310;8.134;2023-02-15T06:58:28;32.40;;;16.92;;
3299;SDS011;1662;49.310;8.134;2023-02-15T07:00:53;29.43;;;16.10;;
3299;SDS011;1662;49.310;8.134;2023-02-15T07:03:19;25.87;;;16.97;;
3299;SDS011;1662;49.310;8.134;2023-02-15T07:05:44;36.93;;;18.00;;
3299;SDS011;1662;49.310;8.134;2023-02-15T07:08:12;24.88;;;16.08;;
3299;SDS011;1662;49.310;8.134;2023-02-15T07:10:43;31.67;;;17.30;;
3299;SDS011;1662;49.310;8.134;2023-02-15T07:13:09;32.58;;;16.00;;
3299;SDS011;1662;49.310;8.134;2023-02-15T07:15:34;34.23;;;16.57;;
3299;SDS011;1662;49.310;8.134;2023-02-15T07:18:00;29.90;;;17.60;;
3299;SDS011;1662;49.310;8.134;2023-02-15T07:20:25;27.87;;;15.93;;
3299;SDS011;1662;49.310;8.134;2023-02-15T07:22:51;29.13;;;16.80;;
3299;SDS011;1662;49.310;8.134;2023-02-15T07:25:17;29.30;;;17.20;;
3299;SDS011;1662;49.310;8.134;2023-02-15T07:27:43;32.45;;;17.80;;
3299;SDS011;1662;49.310;8.134;2023-02-15T07:30:10;29.02;;;15.80;;
3299;SDS011;1662;49.310;8.134;2023-02-15T07:32:38;28.42;;;17.05;;
3299;SDS011;1662;49.310;8.134;2023-02-15T07:35:22;34.50;;;17.70;;
3299;SDS011;1662;49.310;8.134;2023-02-15T07:37:48;35.23;;;19.17;;
3299;SDS011;1662;49.310;8.134;2023-02-15T07:40:14;36.73;;;19.47;;
3299;SDS011;1662;49.310;8.134;2023-02-15T07:42:42;31.17;;;19.10;;
3299;SDS011;1662;49.310;8.134;2023-02-15T07:45:08;37.60;;;19.27;;
3299;SDS011;1662;49.310;8.134;2023-02-15T07:47:33;36.83;;;20.53;;
3299;SDS011;1662;49.310;8.134;2023-02-15T07:49:59;31.03;;;17.20;;
3299;SDS011;1662;49.310;8.134;2023-02-15T07:52:25;30.27;;;17.53;;
3299;SDS011;1662;49.310;8.134;2023-02-15T07:54:50;33.83;;;17.77;;
3299;SDS011;1662;49.310;8.134;2023-02-15T07:57:16;35.03;;;19.40;;
3299;SDS011;1662;49.310;8.134;2023-02-15T07:59:42;38.03;;;19.53;;
3299;SDS011;1662;49.310;8.134;2023-02-15T08:02:10;29.73;;;17.80;;
3299;SDS011;1662;49.310;8.134;2023-02-15T08:04:36;32.22;;;19.95;;
3299;SDS011;1662;49.310;8.134;2023-02-15T08:07:02;32.50;;;18.10;;
3299;SDS011;1662;49.310;8.134;2023-02-15T08:09:27;33.40;;;19.20;;
3299;SDS011;1662;49.310;8.134;2023-02-15T08:11:53;28.73;;;17.20;;
3299;SDS011;1662;49.310;8.134;2023-02-15T08:14:19;31.03;;;18.87;;
3299;SDS011;1662;49.310;8.134;2023-02-15T08:16:51;33.17;;;19.38;;
3299;SDS011;1662;49.310;8.134;2023-02-15T08:19:19;35.28;;;18.13;;
3299;SDS011;1662;49.310;8.134;2023-02-15T08:21:47;32.40;;;19.17;;
3299;SDS011;1662;49.310;8.134;2023-02-15T08:24:19;31.90;;;17.25;;
3299;SDS011;1662;49.310;8.134;2023-02-15T08:26:46;37.53;;;17.83;;
3299;SDS011;1662;49.310;8.134;2023-02-15T08:29:13;36.53;;;19.00;;
3299;SDS011;1662;49.310;8.134;2023-02-15T08:31:40;31.85;;;18.63;;
3299;SDS011;1662;49.310;8.134;2023-02-15T08:34:07;43.13;;;21.13;;
3299;SDS011;1662;49.310;8.134;2023-02-15T08:36:33;37.90;;;19.55;;
3299;SDS011;1662;49.310;8.134;2023-02-15T08:38:59;36.23;;;17.90;;
3299;SDS011;1662;49.310;8.134;2023-02-15T08:41:27;32.67;;;18.38;;
3299;SDS011;1662;49.310;8.134;2023-02-15T08:43:55;29.35;;;15.63;;
3299;SDS011;1662;49.310;8.134;2023-02-15T08:46:23;35.50;;;18.45;;
3299;SDS011;1662;49.310;8.134;2023-02-15T08:48:53;35.53;;;19.30;;
3299;SDS011;1662;49.310;8.134;2023-02-15T08:51:20;29.10;;;17.17;;
3299;SDS011;1662;49.310;8.134;2023-02-15T08:53:48;32.53;;;18.00;;
3299;SDS011;1662;49.310;8.134;2023-02-15T08:56:17;34.42;;;18.00;;
3299;SDS011;1662;49.310;8.134;2023-02-15T08:58:47;26.75;;;16.77;;
3299;SDS011;1662;49.310;8.134;2023-02-15T09:01:14;31.08;;;15.85;;
3299;SDS011;1662;49.310;8.134;2023-02-15T09:03:43;37.80;;;19.75;;
3299;SDS011;1662;49.310;8.134;2023-02-15T09:06:13;30.98;;;18.10;;
3299;SDS011;1662;49.310;8.134;2023-02-15T09:08:39;33.33;;;18.27;;
3299;SDS011;1662;49.310;8.134;2023-02-15T09:11:15;33.77;;;17.20;;
3299;SDS011;1662;49.310;8.134;2023-02-15T09:13:47;43.53;;;20.25;;
3299;SDS011;1662;49.310;8.134;2023-02-15T09:16:13;29.67;;;16.50;;
3299;SDS011;1662;49.310;8.134;2023-02-15T09:18:41;34.13;;;18.13;;
3299;SDS011;1662;49.310;8.134;2023-02-15T09:21:14;34.65;;;18.30;;
3299;SDS011;1662;49.310;8.134;2023-02-15T09:23:45;34.72;;;18.40;;
3299;SDS011;1662;49.310;8.134;2023-02-15T09:26:13;32.30;;;17.15;;
3299;SDS011;1662;49.310;8.134;2023-02-15T09:28:41;35.42;;;18.27;;
3299;SDS011;1662;49.310;8.134;2023-02-15T09:33:38;31.27;;;17.65;;
3299;SDS011;1662;49.310;8.134;2023-02-15T09:36:04;28.98;;;15.07;;
3299;SDS011;1662;49.310;8.134;2023-02-15T09:38:31;34.15;;;15.90;;
3299;SDS011;1662;49.310;8.134;2023-02-15T09:44:19;27.27;;;14.70;;
3299;SDS011;1662;49.310;8.134;2023-02-15T09:55:35;31.40;;;18.60;;
3299;SDS011;1662;49.310;8.134;2023-02-15T10:17:09;33.20;;;16.58;;
3299;SDS011;1662;49.310;8.134;2023-02-15T10:25:22;32.80;;;18.35;;
3299;SDS011;1662;49.310;8.134;2023-02-15T10:28:18;33.38;;;16.45;;
3299;SDS011;1662;49.310;8.134;2023-02-15T10:30:49;31.05;;;15.68;;
3299;SDS011;1662;49.310;8.134;2023-02-15T10:41:26;32.85;;;19.27;;
3299;SDS011;1662;49.310;8.134;2023-02-15T11:02:53;35.88;;;20.60;;
3299;SDS011;1662;49.310;8.134;2023-02-15T11:07:57;33.85;;;18.27;;
3299;SDS011;1662;49.310;8.134;2023-02-15T11:10:45;35.50;;;18.33;;
3299;SDS011;1662;49.310;8.134;2023-02-15T11:13:25;32.75;;;18.23;;
3299;SDS011;1662;49.310;8.134;2023-02-15T11:15:55;35.22;;;18.38;;
3299;SDS011;1662;49.310;8.134;2023-02-15T11:18:40;43.15;;;19.58;;
3299;SDS011;1662;49.310;8.134;2023-02-15T11:24:16;35.85;;;19.58;;
3299;SDS011;1662;49.310;8.134;2023-02-15T11:31:55;45.53;;;21.15;;
3299;SDS011;1662;49.310;8.134;2023-02-15T11:34:37;42.67;;;18.77;;
3299;SDS011;1662;49.310;8.134;2023-02-15T11:37:20;38.90;;;20.25;;
3299;SDS011;1662;49.310;8.134;2023-02-15T11:39:51;37.28;;;20.63;;
3299;SDS011;1662;49.310;8.134;2023-02-15T11:42:20;40.40;;;19.90;;
3299;SDS011;1662;49.310;8.134;2023-02-15T11:47:17;38.78;;;21.40;;
3299;SDS011;1662;49.310;8.134;2023-02-15T11:49:42;32.23;;;18.57;;
3299;SDS011;1662;49.310;8.134;2023-02-15T11:52:14;41.45;;;20.67;;
3299;SDS011;1662;49.310;8.134;2023-02-15T11:54:41;44.35;;;21.63;;
3299;SDS011;1662;49.310;8.134;2023-02-15T11:57:31;40.40;;;21.58;;
3299;SDS011;1662;49.310;8.134;2023-02-15T12:02:35;45.97;;;24.65;;
3299;SDS011;1662;49.310;8.134;2023-02-15T12:05:07;49.33;;;24.30;;
3299;SDS011;1662;49.310;8.134;2023-02-15T12:13:08;36.10;;;20.98;;
3299;SDS011;1662;49.310;8.134;2023-02-15T12:15:34;39.30;;;20.67;;
3299;SDS011;1662;49.310;8.134;2023-02-15T12:18:01;39.35;;;20.65;;
3299;SDS011;1662;49.310;8.134;2023-02-15T12:20:35;36.37;;;19.43;;
3299;SDS011;1662;49.310;8.134;2023-02-15T12:23:23;35.65;;;20.08;;
3299;SDS011;1662;49.310;8.134;2023-02-15T12:25:54;42.20;;;21.80;;
3299;SDS011;1662;49.310;8.134;2023-02-15T12:31:02;43.22;;;22.05;;
3299;SDS011;1662;49.310;8.134;2023-02-15T12:33:39;48.75;;;24.20;;
3299;SDS011;1662;49.310;8.134;2023-02-15T12:36:20;39.88;;;21.75;;
3299;SDS011;1662;49.310;8.134;2023-02-15T12:39:33;50.65;;;27.05;;
3299;SDS011;1662;49.310;8.134;2023-02-15T12:41:37;41.80;;;22.33;;
3299;SDS011;1662;49.310;8.134;2023-02-15T12:44:17;43.75;;;23.42;;
3299;SDS011;1662;49.310;8.134;2023-02-15T12:49:33;44.95;;;23.10;;
3299;SDS011;1662;49.310;8.134;2023-02-15T12:54:45;37.22;;;22.20;;
3299;SDS011;1662;49.310;8.134;2023-02-15T13:02:23;44.50;;;22.43;;
3299;SDS011;1662;49.310;8.134;2023-02-15T13:04:56;51.45;;;24.85;;
3299;SDS011;1662;49.310;8.134;2023-02-15T13:07:30;45.65;;;24.10;;
3299;SDS011;1662;49.310;8.134;2023-02-15T13:09:56;47.70;;;24.00;;
3299;SDS011;1662;49.310;8.134;2023-02-15T13:12:23;49.15;;;24.35;;
3299;SDS011;1662;49.310;8.134;2023-02-15T13:14:56;47.22;;;25.83;;
3299;SDS011;1662;49.310;8.134;2023-02-15T13:17:29;29.08;;;18.23;;
3299;SDS011;1662;49.310;8.134;2023-02-15T13:19:58;45.45;;;23.60;;
3299;SDS011;1662;49.310;8.134;2023-02-15T13:22:32;37.47;;;22.02;;
3299;SDS011;1662;49.310;8.134;2023-02-15T13:25:24;43.75;;;23.40;;
3299;SDS011;1662;49.310;8.134;2023-02-15T13:27:52;36.20;;;21.02;;
3299;SDS011;1662;49.310;8.134;2023-02-15T13:30:27;48.05;;;24.92;;
3299;SDS011;1662;49.310;8.134;2023-02-15T13:33:05;40.20;;;23.35;;
3299;SDS011;1662;49.310;8.134;2023-02-15T13:35:40;42.20;;;25.30;;
3299;SDS011;1662;49.310;8.134;2023-02-15T13:41:30;41.03;;;24.17;;
3299;SDS011;1662;49.310;8.134;2023-02-15T13:44:24;45.80;;;24.48;;
3299;SDS011;1662;49.310;8.134;2023-02-15T13:47:17;45.00;;;23.35;;
3299;SDS011;1662;49.310;8.134;2023-02-15T13:55:35;51.72;;;26.92;;
3299;SDS011;1662;49.310;8.134;2023-02-15T13:58:14;40.42;;;24.58;;
3299;SDS011;1662;49.310;8.134;2023-02-15T14:17:26;42.92;;;24.17;;
3299;SDS011;1662;49.310;8.134;2023-02-15T14:20:17;43.22;;;25.67;;
3299;SDS011;1662;49.310;8.134;2023-02-15T14:22:46;50.63;;;26.20;;
3299;SDS011;1662;49.310;8.134;2023-02-15T14:25:35;46.83;;;27.02;;
3299;SDS011;1662;49.310;8.134;2023-02-15T14:28:07;40.88;;;25.10;;
3299;SDS011;1662;49.310;8.134;2023-02-15T14:30:38;53.67;;;27.85;;
3299;SDS011;1662;49.310;8.134;2023-02-15T14:33:19;46.75;;;26.77;;
3299;SDS011;1662;49.310;8.134;2023-02-15T14:35:56;43.85;;;24.20;;
3299;SDS011;1662;49.310;8.134;2023-02-15T14:43:45;44.50;;;25.10;;
3299;SDS011;1662;49.310;8.134;2023-02-15T14:49:19;44.20;;;26.40;;
3299;SDS011;1662;49.310;8.134;2023-02-15T14:52:07;38.88;;;23.90;;
3299;SDS011;1662;49.310;8.134;2023-02-15T15:02:18;42.40;;;24.63;;
3299;SDS011;1662;49.310;8.134;2023-02-15T15:05:34;41.75;;;25.67;;
3299;SDS011;1662;49.310;8.134;2023-02-15T15:08:19;45.72;;;26.35;;
3299;SDS011;1662;49.310;8.134;2023-02-15T15:10:53;45.40;;;26.23;;
3299;SDS011;1662;49.310;8.134;2023-02-15T15:16:45;44.90;;;25.70;;
3299;SDS011;1662;49.310;8.134;2023-02-15T15:18:54;42.08;;;23.63;;
3299;SDS011;1662;49.310;8.134;2023-02-15T15:24:34;49.92;;;28.33;;
3299;SDS011;1662;49.310;8.134;2023-02-15T15:32:38;43.25;;;24.85;;
3299;SDS011;1662;49.310;8.134;2023-02-15T15:47:24;55.42;;;30.83;;
3299;SDS011;1662;49.310;8.134;2023-02-15T15:49:57;52.75;;;27.30;;
3299;SDS011;1662;49.310;8.134;2023-02-15T15:52:24;48.75;;;29.23;;
3299;SDS011;1662;49.310;8.134;2023-02-15T15:54:57;46.92;;;27.88;;
3299;SDS011;1662;49.310;8.134;2023-02-15T15:57:39;51.13;;;28.00;;
3299;SDS011;1662;49.310;8.134;2023-02-15T16:03:14;49.70;;;29.13;;
3299;SDS011;1662;49.310;8.134;2023-02-15T16:05:45;62.00;;;32.35;;
3299;SDS011;1662;49.310;8.134;2023-02-15T16:08:11;50.47;;;28.80;;
3299;SDS011;1662;49.310;8.134;2023-02-15T16:10:40;49.45;;;28.50;;
3299;SDS011;1662;49.310;8.134;2023-02-15T16:13:06;46.57;;;28.57;;
3299;SDS011;1662;49.310;8.134;2023-02-15T16:18:15;55.85;;;30.10;;
3299;SDS011;1662;49.310;8.134;2023-02-15T16:20:42;66.30;;;37.58;;
3299;SDS011;1662;49.310;8.134;2023-02-15T16:28:47;46.30;;;26.83;;
3299;SDS011;1662;49.310;8.134;2023-02-15T16:31:22;52.25;;;27.83;;
3299;SDS011;1662;49.310;8.134;2023-02-15T16:33:48;45.85;;;27.38;;
3299;SDS011;1662;49.310;8.134;2023-02-15T16:36:27;53.38;;;29.75;;
3299;SDS011;1662;49.310;8.134;2023-02-15T16:41:25;58.20;;;32.60;;
3299;SDS011;1662;49.310;8.134;2023-02-15T16:43:53;56.92;;;29.75;;
3299;SDS011;1662;49.310;8.134;2023-02-15T16:48:52;49.42;;;26.02;;
3299;SDS011;1662;49.310;8.134;2023-02-15T16:51:22;50.75;;;27.83;;
3299;SDS011;1662;49.310;8.134;2023-02-15T16:53:51;52.15;;;28.75;;
3299;SDS011;1662;49.310;8.134;2023-02-15T16:56:25;53.28;;;26.73;;
3299;SDS011;1662;49.310;8.134;2023-02-15T16:58:55;66.47;;;31.15;;
3299;SDS011;1662;49.310;8.134;2023-02-15T17:01:24;59.60;;;30.65;;
3299;SDS011;1662;49.310;8.134;2023-02-15T17:04:10;56.25;;;29.52;;
3299;SDS011;1662;49.310;8.134;2023-02-15T17:07:00;58.00;;;26.98;;
3299;SDS011;1662;49.310;8.134;2023-02-15T17:09:39;45.15;;;28.70;;
3299;SDS011;1662;49.310;8.134;2023-02-15T17:15:27;54.03;;;29.58;;
3299;SDS011;1662;49.310;8.134;2023-02-15T17:17:55;53.15;;;30.08;;
3299;SDS011;1662;49.310;8.134;2023-02-15T17:20:24;52.55;;;28.95;;
3299;SDS011;1662;49.310;8.134;2023-02-15T17:22:51;52.57;;;29.50;;
3299;SDS011;1662;49.310;8.134;2023-02-15T17:25:23;51.17;;;29.48;;
3299;SDS011;1662;49.310;8.134;2023-02-15T17:27:54;51.63;;;29.98;;
3299;SDS011;1662;49.310;8.134;2023-02-15T17:30:26;58.83;;;34.85;;
3299;SDS011;1662;49.310;8.134;2023-02-15T17:33:00;63.85;;;32.75;;
3299;SDS011;1662;49.310;8.134;2023-02-15T17:35:31;57.38;;;32.60;;
3299;SDS011;1662;49.310;8.134;2023-02-15T17:38:02;52.13;;;28.33;;
3299;SDS011;1662;49.310;8.134;2023-02-15T17:40:31;50.42;;;26.85;;
3299;SDS011;1662;49.310;8.134;2023-02-15T17:42:58;55.13;;;28.98;;
3299;SDS011;1662;49.310;8.134;2023-02-15T17:45:26;51.83;;;29.23;;
3299;SDS011;1662;49.310;8.134;2023-02-15T17:48:01;56.47;;;29.98;;
3299;SDS011;1662;49.310;8.134;2023-02-15T17:50:31;49.90;;;26.65;;
3299;SDS011;1662;49.310;8.134;2023-02-15T17:52:58;48.08;;;26.38;;
3299;SDS011;1662;49.310;8.134;2023-02-15T17:55:26;51.38;;;28.70;;
3299;SDS011;1662;49.310;8.134;2023-02-15T17:58:10;54.30;;;28.45;;
3299;SDS011;1662;49.310;8.134;2023-02-15T18:00:44;55.28;;;26.40;;
3299;SDS011;1662;49.310;8.134;2023-02-15T18:06:31;48.58;;;26.45;;
3299;SDS011;1662;49.310;8.134;2023-02-15T18:09:18;59.45;;;29.92;;
3299;SDS011;1662;49.310;8.134;2023-02-15T18:14:50;59.08;;;32.90;;
3299;SDS011;1662;49.310;8.134;2023-02-15T18:17:18;62.83;;;32.85;;
3299;SDS011;1662;49.310;8.134;2023-02-15T18:19:46;59.70;;;33.25;;
3299;SDS011;1662;49.310;8.134;2023-02-15T18:22:13;54.53;;;31.50;;
3299;SDS011;1662;49.310;8.134;2023-02-15T18:24:41;58.58;;;32.63;;
3299;SDS011;1662;49.310;8.134;2023-02-15T18:27:09;55.65;;;31.30;;
3299;SDS011;1662;49.310;8.134;2023-02-15T18:29:36;53.33;;;31.77;;
3299;SDS011;1662;49.310;8.134;2023-02-15T18:32:01;55.70;;;33.30;;
3299;SDS011;1662;49.310;8.134;2023-02-15T18:34:33;53.67;;;26.88;;
3299;SDS011;1662;49.310;8.134;2023-02-15T18:37:02;46.60;;;25.70;;
3299;SDS011;1662;49.310;8.134;2023-02-15T18:39:39;56.33;;;29.88;;
3299;SDS011;1662;49.310;8.134;2023-02-15T18:42:22;58.13;;;32.20;;
3299;SDS011;1662;49.310;8.134;2023-02-15T18:44:52;62.10;;;29.15;;
3299;SDS011;1662;49.310;8.134;2023-02-15T18:47:23;52.30;;;26.33;;
3299;SDS011;1662;49.310;8.134;2023-02-15T18:49:49;54.20;;;28.55;;
3299;SDS011;1662;49.310;8.134;2023-02-15T18:52:15;44.10;;;24.37;;
3299;SDS011;1662;49.310;8.134;2023-02-15T18:54:43;46.55;;;25.67;;
3299;SDS011;1662;49.310;8.134;2023-02-15T18:57:11;43.78;;;25.83;;